sensor_id;sensor_type;location;lat;lon;timestamp;temperature;humidity
2639;DHT22;1329;51.384;7.122;2023-04-24T00:01:52;13.30;99.90
2639;DHT22;1329;51.384;7.122;2023-04-24T00:04:22;13.30;99.90
2639;DHT22;1329;51.384;7.122;2023-04-24T00:07:16;13.40;99.90
2639;DHT22;1329;51.384;7.122;2023-04-24T00:09:56;13.30;99.90
2639;DHT22;1329;51.384;7.122;2023-04-24T00:12:38;13.30;99.90
2639;DHT22;1329;51.384;7.122;2023-04-24T00:15:12;13.30;99.90
2639;DHT22;1329;51.384;7.122;2023-04-24T00:17:50;13.20;99.90
2639;DHT22;1329;51.384;7.122;2023-04-24T00:20:29;13.10;99.90
2639;DHT22;1329;51.384;7.122;2023-04-24T00:23:03;13.10;99.90
2639;DHT22;1329;51.384;7.122;2023-04-24T00:25:56;13.00;99.90
2639;DHT22;1329;51.384;7.122;2023-04-24T00:28:28;12.90;99.90
2639;DHT22;1329;51.384;7.122;2023-04-24T00:31:04;12.90;99.90
2639;DHT22;1329;51.384;7.122;2023-04-24T00:33:33;12.90;99.90
2639;DHT22;1329;51.384;7.122;2023-04-24T00:36:06;12.80;99.90
2639;DHT22;1329;51.384;7.122;2023-04-24T00:38:37;12.70;99.90
2639;DHT22;1329;51.384;7.122;2023-04-24T00:41:17;12.70;99.90
2639;DHT22;1329;51.384;7.122;2023-04-24T00:43:51;12.60;99.90
2639;DHT22;1329;51.384;7.122;2023-04-24T00:46:27;12.60;99.90
2639;DHT22;1329;51.384;7.122;2023-04-24T00:48:59;12.50;99.90
2639;DHT22;1329;51.384;7.122;2023-04-24T00:51:34;12.50;99.90
2639;DHT22;1329;51.384;7.122;2023-04-24T00:57:40;12.40;99.90
2639;DHT22;1329;51.384;7.122;2023-04-24T01:00:14;12.40;99.90
2639;DHT22;1329;51.384;7.122;2023-04-24T01:03:12;12.40;99.90
2639;DHT22;1329;51.384;7.122;2023-04-24T01:05:40;12.30;99.90
2639;DHT22;1329;51.384;7.122;2023-04-24T01:08:07;12.30;99.90
2639;DHT22;1329;51.384;7.122;2023-04-24T01:10:35;12.30;99.90
2639;DHT22;1329;51.384;7.122;2023-04-24T01:13:03;12.30;99.90
2639;DHT22;1329;51.384;7.122;2023-04-24T01:15:32;12.20;99.90
2639;DHT22;1329;51.384;7.122;2023-04-24T01:18:02;12.20;99.90
2639;DHT22;1329;51.384;7.122;2023-04-24T01:20:30;12.30;99.90
2639;DHT22;1329;51.384;7.122;2023-04-24T01:22:59;12.30;99.90
2639;DHT22;1329;51.384;7.122;2023-04-24T01:25:28;12.30;99.90
2639;DHT22;1329;51.384;7.122;2023-04-24T01:27:57;12.30;99.90
2639;DHT22;1329;51.384;7.122;2023-04-24T01:30:24;12.40;99.90
2639;DHT22;1329;51.384;7.122;2023-04-24T01:32:52;12.40;99.90
2639;DHT22;1329;51.384;7.122;2023-04-24T01:35:21;12.40;99.90
2639;DHT22;1329;51.384;7.122;2023-04-24T01:37:48;12.40;99.90
2639;DHT22;1329;51.384;7.122;2023-04-24T01:40:17;12.40;99.90
2639;DHT22;1329;51.384;7.122;2023-04-24T01:42:45;12.40;99.90
2639;DHT22;1329;51.384;7.122;2023-04-24T01:45:12;12.40;99.90
2639;DHT22;1329;51.384;7.122;2023-04-24T01:47:40;12.40;99.90
2639;DHT22;1329;51.384;7.122;2023-04-24T01:50:09;12.40;99.90
2639;DHT22;1329;51.384;7.122;2023-04-24T01:52:37;12.40;99.90
2639;DHT22;1329;51.384;7.122;2023-04-24T01:55:06;12.40;99.90
2639;DHT22;1329;51.384;7.122;2023-04-24T01:57:36;12.30;99.90
2639;DHT22;1329;51.384;7.122;2023-04-24T02:00:13;12.20;99.90
2639;DHT22;1329;51.384;7.122;2023-04-24T02:02:41;12.20;99.90
2639;DHT22;1329;51.384;7.122;2023-04-24T02:05:09;12.10;99.90
2639;DHT22;1329;51.384;7.122;2023-04-24T02:07:36;12.10;99.90
2639;DHT22;1329;51.384;7.122;2023-04-24T02:10:05;12.00;99.90
2639;DHT22;1329;51.384;7.122;2023-04-24T02:12:33;11.90;99.90
2639;DHT22;1329;51.384;7.122;2023-04-24T02:15:03;11.80;99.90
2639;DHT22;1329;51.384;7.122;2023-04-24T02:17:32;11.80;99.90
2639;DHT22;1329;51.384;7.122;2023-04-24T02:19:59;11.70;99.90
2639;DHT22;1329;51.384;7.122;2023-04-24T02:22:28;11.70;99.90
2639;DHT22;1329;51.384;7.122;2023-04-24T02:24:57;11.60;99.90
2639;DHT22;1329;51.384;7.122;2023-04-24T02:27:24;11.60;99.90
2639;DHT22;1329;51.384;7.122;2023-04-24T02:29:53;11.60;99.90
2639;DHT22;1329;51.384;7.122;2023-04-24T02:32:24;11.50;99.90
2639;DHT22;1329;51.384;7.122;2023-04-24T02:34:52;11.50;99.90
2639;DHT22;1329;51.384;7.122;2023-04-24T02:37:20;11.40;99.90
2639;DHT22;1329;51.384;7.122;2023-04-24T02:39:47;11.50;99.90
2639;DHT22;1329;51.384;7.122;2023-04-24T02:42:15;11.50;99.90
2639;DHT22;1329;51.384;7.122;2023-04-24T02:44:45;11.50;99.90
2639;DHT22;1329;51.384;7.122;2023-04-24T02:47:15;11.50;99.90
2639;DHT22;1329;51.384;7.122;2023-04-24T02:49:43;11.50;99.90
2639;DHT22;1329;51.384;7.122;2023-04-24T02:52:13;11.50;99.90
2639;DHT22;1329;51.384;7.122;2023-04-24T02:54:40;11.50;99.90
2639;DHT22;1329;51.384;7.122;2023-04-24T02:57:08;11.60;99.90
2639;DHT22;1329;51.384;7.122;2023-04-24T02:59:36;11.60;99.90
2639;DHT22;1329;51.384;7.122;2023-04-24T03:02:03;11.60;99.90
2639;DHT22;1329;51.384;7.122;2023-04-24T03:04:32;11.70;99.90
2639;DHT22;1329;51.384;7.122;2023-04-24T03:06:59;11.70;99.90
2639;DHT22;1329;51.384;7.122;2023-04-24T03:09:26;11.80;99.90
2639;DHT22;1329;51.384;7.122;2023-04-24T03:11:54;11.70;99.90
2639;DHT22;1329;51.384;7.122;2023-04-24T03:14:21;11.80;99.90
2639;DHT22;1329;51.384;7.122;2023-04-24T03:16:48;11.80;99.90
2639;DHT22;1329;51.384;7.122;2023-04-24T03:19:16;11.90;99.90
2639;DHT22;1329;51.384;7.122;2023-04-24T03:21:44;11.90;99.90
2639;DHT22;1329;51.384;7.122;2023-04-24T03:24:12;11.90;99.90
2639;DHT22;1329;51.384;7.122;2023-04-24T03:26:39;11.90;99.90
2639;DHT22;1329;51.384;7.122;2023-04-24T03:29:06;11.90;99.90
2639;DHT22;1329;51.384;7.122;2023-04-24T03:31:33;11.90;99.90
2639;DHT22;1329;51.384;7.122;2023-04-24T03:34:00;11.90;99.90
2639;DHT22;1329;51.384;7.122;2023-04-24T03:36:27;12.00;99.90
2639;DHT22;1329;51.384;7.122;2023-04-24T03:38:57;12.00;99.90
2639;DHT22;1329;51.384;7.122;2023-04-24T03:41:24;12.00;99.90
2639;DHT22;1329;51.384;7.122;2023-04-24T03:43:52;12.00;99.90
2639;DHT22;1329;51.384;7.122;2023-04-24T03:46:20;12.00;99.90
2639;DHT22;1329;51.384;7.122;2023-04-24T03:48:49;12.00;99.90
2639;DHT22;1329;51.384;7.122;2023-04-24T03:51:17;12.00;99.90
2639;DHT22;1329;51.384;7.122;2023-04-24T03:53:44;12.00;99.90
2639;DHT22;1329;51.384;7.122;2023-04-24T03:56:13;12.00;99.90
2639;DHT22;1329;51.384;7.122;2023-04-24T03:58:40;12.00;99.90
2639;DHT22;1329;51.384;7.122;2023-04-24T04:01:08;12.00;99.90
2639;DHT22;1329;51.384;7.122;2023-04-24T04:03:36;12.00;99.90
2639;DHT22;1329;51.384;7.122;2023-04-24T04:06:03;12.00;99.90
2639;DHT22;1329;51.384;7.122;2023-04-24T04:08:30;12.00;99.90
2639;DHT22;1329;51.384;7.122;2023-04-24T04:10:58;12.00;99.90
2639;DHT22;1329;51.384;7.122;2023-04-24T04:13:26;12.00;99.90
2639;DHT22;1329;51.384;7.122;2023-04-24T04:15:53;12.00;99.90
2639;DHT22;1329;51.384;7.122;2023-04-24T04:18:20;12.00;99.90
2639;DHT22;1329;51.384;7.122;2023-04-24T04:20:47;12.00;99.90
2639;DHT22;1329;51.384;7.122;2023-04-24T04:23:14;12.00;99.90
2639;DHT22;1329;51.384;7.122;2023-04-24T04:25:42;12.00;99.90
2639;DHT22;1329;51.384;7.122;2023-04-24T04:28:09;12.00;99.90
2639;DHT22;1329;51.384;7.122;2023-04-24T04:30:37;12.00;99.90
2639;DHT22;1329;51.384;7.122;2023-04-24T04:33:05;12.00;99.90
2639;DHT22;1329;51.384;7.122;2023-04-24T04:35:33;12.00;99.90
2639;DHT22;1329;51.384;7.122;2023-04-24T04:38:00;12.00;99.90
2639;DHT22;1329;51.384;7.122;2023-04-24T04:40:27;12.00;99.90
2639;DHT22;1329;51.384;7.122;2023-04-24T04:42:56;12.00;99.90
2639;DHT22;1329;51.384;7.122;2023-04-24T04:45:24;12.00;99.90
2639;DHT22;1329;51.384;7.122;2023-04-24T04:47:54;12.00;99.90
2639;DHT22;1329;51.384;7.122;2023-04-24T04:50:23;12.00;99.90
2639;DHT22;1329;51.384;7.122;2023-04-24T04:52:50;12.00;99.90
2639;DHT22;1329;51.384;7.122;2023-04-24T04:55:18;12.00;99.90
2639;DHT22;1329;51.384;7.122;2023-04-24T04:57:47;11.90;99.90
2639;DHT22;1329;51.384;7.122;2023-04-24T05:00:15;11.90;99.90
2639;DHT22;1329;51.384;7.122;2023-04-24T05:02:44;11.90;99.90
2639;DHT22;1329;51.384;7.122;2023-04-24T05:05:13;11.90;99.90
2639;DHT22;1329;51.384;7.122;2023-04-24T05:07:42;11.90;99.90
2639;DHT22;1329;51.384;7.122;2023-04-24T05:10:10;11.90;99.90
2639;DHT22;1329;51.384;7.122;2023-04-24T05:12:38;11.90;99.90
2639;DHT22;1329;51.384;7.122;2023-04-24T05:15:05;11.90;99.90
2639;DHT22;1329;51.384;7.122;2023-04-24T05:17:34;11.90;99.90
2639;DHT22;1329;51.384;7.122;2023-04-24T05:20:02;12.00;99.90
2639;DHT22;1329;51.384;7.122;2023-04-24T05:22:32;12.00;99.90
2639;DHT22;1329;51.384;7.122;2023-04-24T05:25:00;11.90;99.90
2639;DHT22;1329;51.384;7.122;2023-04-24T05:27:29;11.90;99.90
2639;DHT22;1329;51.384;7.122;2023-04-24T05:29:56;11.90;99.90
2639;DHT22;1329;51.384;7.122;2023-04-24T05:32:25;11.90;99.90
2639;DHT22;1329;51.384;7.122;2023-04-24T05:34:52;11.80;99.90
2639;DHT22;1329;51.384;7.122;2023-04-24T05:37:20;11.80;99.90
2639;DHT22;1329;51.384;7.122;2023-04-24T05:39:53;11.80;99.90
2639;DHT22;1329;51.384;7.122;2023-04-24T05:42:23;11.80;99.90
2639;DHT22;1329;51.384;7.122;2023-04-24T05:44:50;11.70;99.90
2639;DHT22;1329;51.384;7.122;2023-04-24T05:47:20;11.70;99.90
2639;DHT22;1329;51.384;7.122;2023-04-24T05:49:48;11.60;99.90
2639;DHT22;1329;51.384;7.122;2023-04-24T05:52:15;11.60;99.90
2639;DHT22;1329;51.384;7.122;2023-04-24T05:54:43;11.60;99.90
2639;DHT22;1329;51.384;7.122;2023-04-24T05:57:12;11.60;99.90
2639;DHT22;1329;51.384;7.122;2023-04-24T05:59:40;11.50;99.90
2639;DHT22;1329;51.384;7.122;2023-04-24T06:02:07;11.50;99.90
2639;DHT22;1329;51.384;7.122;2023-04-24T06:04:35;11.50;99.90
2639;DHT22;1329;51.384;7.122;2023-04-24T06:07:03;11.50;99.90
2639;DHT22;1329;51.384;7.122;2023-04-24T06:09:30;11.50;99.90
2639;DHT22;1329;51.384;7.122;2023-04-24T06:11:59;11.50;99.90
2639;DHT22;1329;51.384;7.122;2023-04-24T06:14:27;11.50;99.90
2639;DHT22;1329;51.384;7.122;2023-04-24T06:16:54;11.50;99.90
2639;DHT22;1329;51.384;7.122;2023-04-24T06:19:22;11.50;99.90
2639;DHT22;1329;51.384;7.122;2023-04-24T06:21:49;11.50;99.90
2639;DHT22;1329;51.384;7.122;2023-04-24T06:24:17;11.50;99.90
2639;DHT22;1329;51.384;7.122;2023-04-24T06:26:44;11.50;99.90
2639;DHT22;1329;51.384;7.122;2023-04-24T06:29:11;11.50;99.90
2639;DHT22;1329;51.384;7.122;2023-04-24T06:31:40;11.50;99.90
2639;DHT22;1329;51.384;7.122;2023-04-24T06:34:07;11.50;99.90
2639;DHT22;1329;51.384;7.122;2023-04-24T06:36:35;11.50;99.90
2639;DHT22;1329;51.384;7.122;2023-04-24T06:39:03;11.50;99.90
2639;DHT22;1329;51.384;7.122;2023-04-24T06:41:31;11.60;99.90
2639;DHT22;1329;51.384;7.122;2023-04-24T06:44:00;11.60;99.90
2639;DHT22;1329;51.384;7.122;2023-04-24T06:46:28;11.70;99.90
2639;DHT22;1329;51.384;7.122;2023-04-24T06:49:01;11.70;99.90
2639;DHT22;1329;51.384;7.122;2023-04-24T06:51:32;11.80;99.90
2639;DHT22;1329;51.384;7.122;2023-04-24T06:54:03;11.90;99.90
2639;DHT22;1329;51.384;7.122;2023-04-24T06:56:31;11.80;99.90
2639;DHT22;1329;51.384;7.122;2023-04-24T06:59:00;11.90;99.90
2639;DHT22;1329;51.384;7.122;2023-04-24T07:01:27;11.80;99.90
2639;DHT22;1329;51.384;7.122;2023-04-24T07:03:55;11.90;99.90
2639;DHT22;1329;51.384;7.122;2023-04-24T07:06:27;11.90;99.90
2639;DHT22;1329;51.384;7.122;2023-04-24T07:08:57;11.90;99.90
2639;DHT22;1329;51.384;7.122;2023-04-24T07:11:25;11.90;99.90
2639;DHT22;1329;51.384;7.122;2023-04-24T07:13:54;11.80;99.90
2639;DHT22;1329;51.384;7.122;2023-04-24T07:16:22;11.80;99.90
2639;DHT22;1329;51.384;7.122;2023-04-24T07:18:50;11.80;99.90
2639;DHT22;1329;51.384;7.122;2023-04-24T07:21:19;11.70;99.90
2639;DHT22;1329;51.384;7.122;2023-04-24T07:23:48;11.70;99.90
2639;DHT22;1329;51.384;7.122;2023-04-24T07:26:20;11.70;99.90
2639;DHT22;1329;51.384;7.122;2023-04-24T07:28:51;11.70;99.90
2639;DHT22;1329;51.384;7.122;2023-04-24T07:31:20;11.60;99.90
2639;DHT22;1329;51.384;7.122;2023-04-24T07:33:52;11.60;99.90
2639;DHT22;1329;51.384;7.122;2023-04-24T07:36:24;11.60;99.90
2639;DHT22;1329;51.384;7.122;2023-04-24T07:42:27;11.50;99.90
2639;DHT22;1329;51.384;7.122;2023-04-24T07:44:56;11.60;99.90
2639;DHT22;1329;51.384;7.122;2023-04-24T07:47:27;11.70;99.90
2639;DHT22;1329;51.384;7.122;2023-04-24T07:49:55;11.70;99.90
2639;DHT22;1329;51.384;7.122;2023-04-24T07:52:24;11.80;99.90
2639;DHT22;1329;51.384;7.122;2023-04-24T07:54:52;11.80;99.90
2639;DHT22;1329;51.384;7.122;2023-04-24T07:57:24;11.70;99.90
2639;DHT22;1329;51.384;7.122;2023-04-24T07:59:55;11.70;99.90
2639;DHT22;1329;51.384;7.122;2023-04-24T08:02:22;11.60;99.90
2639;DHT22;1329;51.384;7.122;2023-04-24T08:04:52;11.60;99.90
2639;DHT22;1329;51.384;7.122;2023-04-24T08:07:19;11.50;99.90
2639;DHT22;1329;51.384;7.122;2023-04-24T08:09:47;11.50;99.90
2639;DHT22;1329;51.384;7.122;2023-04-24T08:12:14;11.50;99.90
2639;DHT22;1329;51.384;7.122;2023-04-24T08:14:41;11.60;99.90
2639;DHT22;1329;51.384;7.122;2023-04-24T08:17:09;11.60;99.90
2639;DHT22;1329;51.384;7.122;2023-04-24T08:19:37;11.60;99.90
2639;DHT22;1329;51.384;7.122;2023-04-24T08:22:04;11.60;99.90
2639;DHT22;1329;51.384;7.122;2023-04-24T08:24:31;11.60;99.90
2639;DHT22;1329;51.384;7.122;2023-04-24T08:26:58;11.50;99.90
2639;DHT22;1329;51.384;7.122;2023-04-24T08:29:25;11.50;99.90
2639;DHT22;1329;51.384;7.122;2023-04-24T08:31:52;11.40;99.90
2639;DHT22;1329;51.384;7.122;2023-04-24T08:34:22;11.40;99.90
2639;DHT22;1329;51.384;7.122;2023-04-24T08:36:55;11.40;99.90
2639;DHT22;1329;51.384;7.122;2023-04-24T08:39:23;11.40;99.90
2639;DHT22;1329;51.384;7.122;2023-04-24T08:41:50;11.30;99.90
2639;DHT22;1329;51.384;7.122;2023-04-24T08:44:20;11.30;99.90
2639;DHT22;1329;51.384;7.122;2023-04-24T08:46:48;11.20;99.90
2639;DHT22;1329;51.384;7.122;2023-04-24T08:49:16;11.20;99.90
2639;DHT22;1329;51.384;7.122;2023-04-24T08:51:45;11.10;99.90
2639;DHT22;1329;51.384;7.122;2023-04-24T08:54:13;11.10;99.90
2639;DHT22;1329;51.384;7.122;2023-04-24T08:56:43;11.10;99.90
2639;DHT22;1329;51.384;7.122;2023-04-24T08:59:11;11.00;99.90
2639;DHT22;1329;51.384;7.122;2023-04-24T09:01:40;11.00;99.90
2639;DHT22;1329;51.384;7.122;2023-04-24T09:04:08;10.90;99.90
2639;DHT22;1329;51.384;7.122;2023-04-24T09:06:37;10.90;99.90
2639;DHT22;1329;51.384;7.122;2023-04-24T09:09:06;10.90;99.90
2639;DHT22;1329;51.384;7.122;2023-04-24T09:11:34;10.90;99.90
2639;DHT22;1329;51.384;7.122;2023-04-24T09:14:01;10.90;99.90
2639;DHT22;1329;51.384;7.122;2023-04-24T09:16:28;10.90;99.90
2639;DHT22;1329;51.384;7.122;2023-04-24T09:18:56;10.90;99.90
2639;DHT22;1329;51.384;7.122;2023-04-24T09:21:23;11.00;99.90
2639;DHT22;1329;51.384;7.122;2023-04-24T09:23:58;11.00;99.90
2639;DHT22;1329;51.384;7.122;2023-04-24T09:26:29;11.10;99.90
2639;DHT22;1329;51.384;7.122;2023-04-24T09:28:59;11.10;99.90
2639;DHT22;1329;51.384;7.122;2023-04-24T09:31:27;11.10;99.90
2639;DHT22;1329;51.384;7.122;2023-04-24T09:33:56;11.10;99.90
2639;DHT22;1329;51.384;7.122;2023-04-24T09:36:28;11.10;99.90
2639;DHT22;1329;51.384;7.122;2023-04-24T09:38:59;11.10;99.90
2639;DHT22;1329;51.384;7.122;2023-04-24T09:41:28;11.10;99.90
2639;DHT22;1329;51.384;7.122;2023-04-24T09:44:10;11.00;99.90
2639;DHT22;1329;51.384;7.122;2023-04-24T09:46:38;11.00;99.90
2639;DHT22;1329;51.384;7.122;2023-04-24T09:49:08;10.90;99.90
2639;DHT22;1329;51.384;7.122;2023-04-24T09:51:37;10.90;99.90
2639;DHT22;1329;51.384;7.122;2023-04-24T09:54:13;10.80;99.90
2639;DHT22;1329;51.384;7.122;2023-04-24T09:56:45;10.80;99.90
2639;DHT22;1329;51.384;7.122;2023-04-24T09:59:13;10.80;99.90
2639;DHT22;1329;51.384;7.122;2023-04-24T10:01:42;10.80;99.90
2639;DHT22;1329;51.384;7.122;2023-04-24T10:04:17;10.70;99.90
2639;DHT22;1329;51.384;7.122;2023-04-24T10:06:45;10.70;99.90
2639;DHT22;1329;51.384;7.122;2023-04-24T10:09:12;10.70;99.90
2639;DHT22;1329;51.384;7.122;2023-04-24T10:11:45;10.60;99.90
2639;DHT22;1329;51.384;7.122;2023-04-24T10:14:13;10.60;99.90
2639;DHT22;1329;51.384;7.122;2023-04-24T10:16:43;10.60;99.90
2639;DHT22;1329;51.384;7.122;2023-04-24T10:19:13;10.60;99.90
2639;DHT22;1329;51.384;7.122;2023-04-24T10:21:41;10.50;99.90
2639;DHT22;1329;51.384;7.122;2023-04-24T10:24:12;10.50;99.90
2639;DHT22;1329;51.384;7.122;2023-04-24T10:26:40;10.50;99.90
2639;DHT22;1329;51.384;7.122;2023-04-24T10:29:10;10.50;99.90
2639;DHT22;1329;51.384;7.122;2023-04-24T10:31:39;10.50;99.90
2639;DHT22;1329;51.384;7.122;2023-04-24T10:34:08;10.50;99.90
2639;DHT22;1329;51.384;7.122;2023-04-24T10:36:40;10.50;99.90
2639;DHT22;1329;51.384;7.122;2023-04-24T10:39:10;10.60;99.90
2639;DHT22;1329;51.384;7.122;2023-04-24T10:41:38;10.60;99.90
2639;DHT22;1329;51.384;7.122;2023-04-24T10:44:06;10.60;99.90
2639;DHT22;1329;51.384;7.122;2023-04-24T10:46:35;10.70;99.90
2639;DHT22;1329;51.384;7.122;2023-04-24T10:49:04;10.70;99.90
2639;DHT22;1329;51.384;7.122;2023-04-24T10:51:45;10.70;99.90
2639;DHT22;1329;51.384;7.122;2023-04-24T10:54:24;10.80;99.90
2639;DHT22;1329;51.384;7.122;2023-04-24T10:56:53;10.80;99.90
2639;DHT22;1329;51.384;7.122;2023-04-24T10:59:26;10.80;99.90
2639;DHT22;1329;51.384;7.122;2023-04-24T11:01:55;10.80;99.90
2639;DHT22;1329;51.384;7.122;2023-04-24T11:04:51;10.80;99.90
2639;DHT22;1329;51.384;7.122;2023-04-24T11:07:21;10.90;99.90
2639;DHT22;1329;51.384;7.122;2023-04-24T11:09:58;10.90;99.90
2639;DHT22;1329;51.384;7.122;2023-04-24T11:12:26;10.90;99.90
2639;DHT22;1329;51.384;7.122;2023-04-24T11:15:03;10.90;99.90
2639;DHT22;1329;51.384;7.122;2023-04-24T11:17:35;11.00;99.90
2639;DHT22;1329;51.384;7.122;2023-04-24T11:20:09;11.10;99.90
2639;DHT22;1329;51.384;7.122;2023-04-24T11:22:38;11.10;99.90
2639;DHT22;1329;51.384;7.122;2023-04-24T11:25:06;11.20;99.90
2639;DHT22;1329;51.384;7.122;2023-04-24T11:27:39;11.20;99.90
2639;DHT22;1329;51.384;7.122;2023-04-24T11:30:08;11.30;99.90
2639;DHT22;1329;51.384;7.122;2023-04-24T11:32:39;11.40;99.90
2639;DHT22;1329;51.384;7.122;2023-04-24T11:35:08;11.50;99.90
2639;DHT22;1329;51.384;7.122;2023-04-24T11:37:40;11.60;99.90
2639;DHT22;1329;51.384;7.122;2023-04-24T11:40:10;11.60;99.90
2639;DHT22;1329;51.384;7.122;2023-04-24T11:42:39;11.70;99.90
2639;DHT22;1329;51.384;7.122;2023-04-24T11:45:08;11.80;99.90
2639;DHT22;1329;51.384;7.122;2023-04-24T11:47:38;11.70;99.90
2639;DHT22;1329;51.384;7.122;2023-04-24T11:50:07;11.70;99.90
2639;DHT22;1329;51.384;7.122;2023-04-24T11:52:37;11.70;99.90
2639;DHT22;1329;51.384;7.122;2023-04-24T11:55:07;11.60;99.90
2639;DHT22;1329;51.384;7.122;2023-04-24T11:57:35;11.60;99.90
2639;DHT22;1329;51.384;7.122;2023-04-24T12:00:03;11.60;99.90
2639;DHT22;1329;51.384;7.122;2023-04-24T12:02:31;11.50;99.90
2639;DHT22;1329;51.384;7.122;2023-04-24T12:05:00;11.60;99.90
2639;DHT22;1329;51.384;7.122;2023-04-24T12:07:26;11.60;99.90
2639;DHT22;1329;51.384;7.122;2023-04-24T12:09:56;11.60;99.90
2639;DHT22;1329;51.384;7.122;2023-04-24T12:12:26;11.70;99.90
2639;DHT22;1329;51.384;7.122;2023-04-24T12:14:55;11.70;99.90
2639;DHT22;1329;51.384;7.122;2023-04-24T12:17:27;11.90;99.90
2639;DHT22;1329;51.384;7.122;2023-04-24T12:20:02;12.00;99.90
2639;DHT22;1329;51.384;7.122;2023-04-24T12:22:45;12.10;99.90
2639;DHT22;1329;51.384;7.122;2023-04-24T12:25:14;12.30;99.90
2639;DHT22;1329;51.384;7.122;2023-04-24T12:27:42;12.40;99.90
2639;DHT22;1329;51.384;7.122;2023-04-24T12:30:12;12.50;99.90
2639;DHT22;1329;51.384;7.122;2023-04-24T12:32:43;12.60;99.90
2639;DHT22;1329;51.384;7.122;2023-04-24T12:35:18;12.60;99.90
2639;DHT22;1329;51.384;7.122;2023-04-24T12:37:46;12.50;99.90
2639;DHT22;1329;51.384;7.122;2023-04-24T12:40:13;12.50;99.90
2639;DHT22;1329;51.384;7.122;2023-04-24T12:42:43;12.40;99.90
2639;DHT22;1329;51.384;7.122;2023-04-24T12:45:11;12.40;99.90
2639;DHT22;1329;51.384;7.122;2023-04-24T12:47:40;12.30;99.90
2639;DHT22;1329;51.384;7.122;2023-04-24T12:50:08;12.30;99.90
2639;DHT22;1329;51.384;7.122;2023-04-24T12:52:38;12.30;99.90
2639;DHT22;1329;51.384;7.122;2023-04-24T12:55:06;12.20;99.90
2639;DHT22;1329;51.384;7.122;2023-04-24T12:57:35;12.20;99.90
2639;DHT22;1329;51.384;7.122;2023-04-24T13:00:04;12.20;99.90
2639;DHT22;1329;51.384;7.122;2023-04-24T13:02:33;12.20;99.90
2639;DHT22;1329;51.384;7.122;2023-04-24T13:05:01;12.20;99.90
2639;DHT22;1329;51.384;7.122;2023-04-24T13:07:28;12.30;99.90
2639;DHT22;1329;51.384;7.122;2023-04-24T13:09:56;12.30;99.90
2639;DHT22;1329;51.384;7.122;2023-04-24T13:12:24;12.40;99.90
2639;DHT22;1329;51.384;7.122;2023-04-24T13:14:52;12.40;99.90
2639;DHT22;1329;51.384;7.122;2023-04-24T13:17:18;12.50;99.90
2639;DHT22;1329;51.384;7.122;2023-04-24T13:19:45;12.50;99.90
2639;DHT22;1329;51.384;7.122;2023-04-24T13:22:13;12.50;99.90
2639;DHT22;1329;51.384;7.122;2023-04-24T13:24:40;12.60;99.90
2639;DHT22;1329;51.384;7.122;2023-04-24T13:27:09;12.70;99.90
2639;DHT22;1329;51.384;7.122;2023-04-24T13:29:36;12.70;99.90
2639;DHT22;1329;51.384;7.122;2023-04-24T13:32:03;12.60;99.90
2639;DHT22;1329;51.384;7.122;2023-04-24T13:34:31;12.60;99.90
2639;DHT22;1329;51.384;7.122;2023-04-24T13:36:58;12.60;99.90
2639;DHT22;1329;51.384;7.122;2023-04-24T13:39:25;12.50;99.90
2639;DHT22;1329;51.384;7.122;2023-04-24T13:41:53;12.40;99.90
2639;DHT22;1329;51.384;7.122;2023-04-24T13:44:22;12.30;99.90
2639;DHT22;1329;51.384;7.122;2023-04-24T13:46:51;12.30;99.90
2639;DHT22;1329;51.384;7.122;2023-04-24T13:49:22;12.30;99.90
2639;DHT22;1329;51.384;7.122;2023-04-24T13:51:51;12.20;99.90
2639;DHT22;1329;51.384;7.122;2023-04-24T13:54:18;12.10;99.90
2639;DHT22;1329;51.384;7.122;2023-04-24T13:56:45;12.10;99.90
2639;DHT22;1329;51.384;7.122;2023-04-24T13:59:12;12.10;99.90
2639;DHT22;1329;51.384;7.122;2023-04-24T14:01:41;12.10;99.90
2639;DHT22;1329;51.384;7.122;2023-04-24T14:04:08;12.10;99.90
2639;DHT22;1329;51.384;7.122;2023-04-24T14:06:35;12.20;99.90
2639;DHT22;1329;51.384;7.122;2023-04-24T14:09:02;12.30;99.90
2639;DHT22;1329;51.384;7.122;2023-04-24T14:11:29;12.30;99.90
2639;DHT22;1329;51.384;7.122;2023-04-24T14:13:56;12.40;99.90
2639;DHT22;1329;51.384;7.122;2023-04-24T14:16:23;12.60;99.90
2639;DHT22;1329;51.384;7.122;2023-04-24T14:18:51;12.60;99.90
2639;DHT22;1329;51.384;7.122;2023-04-24T14:21:18;12.60;99.90
2639;DHT22;1329;51.384;7.122;2023-04-24T14:23:45;12.70;99.90
2639;DHT22;1329;51.384;7.122;2023-04-24T14:26:12;12.70;99.90
2639;DHT22;1329;51.384;7.122;2023-04-24T14:28:39;12.80;99.90
2639;DHT22;1329;51.384;7.122;2023-04-24T14:31:06;12.90;99.90
2639;DHT22;1329;51.384;7.122;2023-04-24T14:33:33;12.90;99.90
2639;DHT22;1329;51.384;7.122;2023-04-24T14:36:02;13.00;99.90
2639;DHT22;1329;51.384;7.122;2023-04-24T14:38:30;13.10;99.90
2639;DHT22;1329;51.384;7.122;2023-04-24T14:40:57;13.10;99.90
2639;DHT22;1329;51.384;7.122;2023-04-24T14:43:24;13.20;99.90
2639;DHT22;1329;51.384;7.122;2023-04-24T14:45:51;13.20;99.90
2639;DHT22;1329;51.384;7.122;2023-04-24T14:48:18;13.20;99.90
2639;DHT22;1329;51.384;7.122;2023-04-24T14:50:45;13.20;99.90
2639;DHT22;1329;51.384;7.122;2023-04-24T14:53:14;13.20;99.90
2639;DHT22;1329;51.384;7.122;2023-04-24T14:55:41;13.20;99.90
2639;DHT22;1329;51.384;7.122;2023-04-24T14:58:08;13.20;99.90
2639;DHT22;1329;51.384;7.122;2023-04-24T15:00:35;13.10;99.90
2639;DHT22;1329;51.384;7.122;2023-04-24T15:03:03;13.10;99.90
2639;DHT22;1329;51.384;7.122;2023-04-24T15:05:30;13.00;99.90
2639;DHT22;1329;51.384;7.122;2023-04-24T15:07:57;12.90;99.90
2639;DHT22;1329;51.384;7.122;2023-04-24T15:10:25;12.90;99.90
2639;DHT22;1329;51.384;7.122;2023-04-24T15:12:52;12.80;99.90
2639;DHT22;1329;51.384;7.122;2023-04-24T15:15:19;12.80;99.90
2639;DHT22;1329;51.384;7.122;2023-04-24T15:17:46;12.70;99.90
2639;DHT22;1329;51.384;7.122;2023-04-24T15:20:13;12.60;99.90
2639;DHT22;1329;51.384;7.122;2023-04-24T15:22:40;12.50;99.90
2639;DHT22;1329;51.384;7.122;2023-04-24T15:25:08;12.50;99.90
2639;DHT22;1329;51.384;7.122;2023-04-24T15:27:43;12.50;99.90
2639;DHT22;1329;51.384;7.122;2023-04-24T15:30:12;12.50;99.90
2639;DHT22;1329;51.384;7.122;2023-04-24T15:32:39;12.60;99.90
2639;DHT22;1329;51.384;7.122;2023-04-24T15:35:07;12.60;99.90
2639;DHT22;1329;51.384;7.122;2023-04-24T15:37:35;12.60;99.90
2639;DHT22;1329;51.384;7.122;2023-04-24T15:40:02;12.70;99.90
2639;DHT22;1329;51.384;7.122;2023-04-24T15:42:30;12.80;99.90
2639;DHT22;1329;51.384;7.122;2023-04-24T15:44:59;12.80;99.90
2639;DHT22;1329;51.384;7.122;2023-04-24T15:47:26;12.90;99.90
2639;DHT22;1329;51.384;7.122;2023-04-24T15:49:53;13.00;99.90
2639;DHT22;1329;51.384;7.122;2023-04-24T15:52:20;13.00;99.90
2639;DHT22;1329;51.384;7.122;2023-04-24T15:54:48;13.10;99.90
2639;DHT22;1329;51.384;7.122;2023-04-24T15:57:15;13.30;99.90
2639;DHT22;1329;51.384;7.122;2023-04-24T15:59:42;13.40;99.90
2639;DHT22;1329;51.384;7.122;2023-04-24T16:02:12;13.50;99.90
2639;DHT22;1329;51.384;7.122;2023-04-24T16:04:43;13.70;99.90
2639;DHT22;1329;51.384;7.122;2023-04-24T16:07:11;13.80;99.90
2639;DHT22;1329;51.384;7.122;2023-04-24T16:09:38;13.80;99.90
2639;DHT22;1329;51.384;7.122;2023-04-24T16:12:05;13.80;99.90
2639;DHT22;1329;51.384;7.122;2023-04-24T16:14:33;13.70;99.90
2639;DHT22;1329;51.384;7.122;2023-04-24T16:17:00;13.60;99.90
2639;DHT22;1329;51.384;7.122;2023-04-24T16:19:29;13.60;99.90
2639;DHT22;1329;51.384;7.122;2023-04-24T16:21:56;13.50;99.90